createdAt,value
2022-09-07T00:04:00.975Z,60.54
2022-09-07T00:09:04.626Z,73.61
2022-09-07T00:14:08.073Z,68.81
2022-09-07T00:19:11.325Z,55.82
2022-09-07T00:24:14.994Z,53.17
2022-09-07T00:29:18.020Z,54.85
2022-09-07T00:34:21.070Z,56.60
2022-09-07T00:39:24.211Z,57.81
2022-09-07T00:44:42.714Z,59.64
2022-09-07T00:49:51.970Z,72.77
2022-09-07T00:55:03.471Z,69.03
2022-09-07T01:00:08.200Z,59.44
2022-09-07T01:05:31.985Z,50.88
2022-09-07T01:10:37.784Z,51.91
2022-09-07T01:15:53.049Z,54.18
2022-09-07T01:21:13.785Z,55.92
2022-09-07T01:26:41.006Z,58.08
2022-09-07T01:32:14.118Z,60.08
2022-09-07T01:37:33.266Z,74.22
2022-09-07T01:42:54.319Z,66.55
2022-09-07T01:48:04.037Z,55.18
2022-09-07T01:53:16.902Z,53.46
2022-09-07T01:58:48.877Z,55.21
2022-09-07T02:04:04.080Z,57.17
2022-09-07T02:09:29.027Z,59.30
2022-09-07T02:14:43.566Z,73.12
2022-09-07T02:20:04.477Z,67.22
2022-09-07T02:25:10.788Z,54.89
2022-09-07T02:30:15.935Z,53.64
2022-09-07T02:35:19.079Z,55.26
2022-09-07T02:40:22.107Z,56.88
2022-09-07T02:45:25.303Z,58.62
2022-09-07T02:50:47.322Z,72.05
2022-09-07T02:56:03.342Z,69.70
2022-09-07T03:01:15.514Z,61.90
2022-09-07T03:07:04.333Z,52.50
2022-09-07T03:12:07.933Z,52.33
2022-09-07T03:17:13.662Z,54.22
2022-09-07T03:22:16.633Z,56.77
2022-09-07T03:27:19.677Z,58.94
2022-09-07T03:32:22.700Z,71.69
2022-09-07T03:37:25.931Z,68.37
2022-09-07T03:42:28.934Z,60.83
2022-09-07T03:47:35.605Z,52.01
2022-09-07T03:52:38.904Z,51.94
2022-09-07T03:57:43.735Z,54.36
2022-09-07T04:02:46.876Z,55.83
2022-09-07T04:07:50.029Z,58.16
2022-09-07T04:12:53.358Z,59.84
2022-09-07T04:17:56.685Z,71.92
2022-09-07T04:22:59.785Z,69.96
2022-09-07T04:28:04.121Z,62.64
2022-09-07T04:33:07.317Z,52.01
2022-09-07T04:38:15.979Z,51.30
2022-09-07T04:43:19.058Z,53.44
2022-09-07T04:48:22.382Z,54.82
2022-09-07T04:53:25.393Z,57.26
2022-09-07T04:58:28.842Z,59.28
2022-09-07T05:03:36.246Z,71.88
2022-09-07T05:08:48.316Z,69.41
2022-09-07T05:13:51.390Z,61.89
2022-09-07T05:18:59.095Z,52.64
2022-09-07T05:24:02.899Z,52.14
2022-09-07T05:34:31.306Z,56.52
2022-09-07T05:39:34.887Z,58.59
2022-09-07T05:44:45.735Z,69.92
2022-09-07T05:49:51.060Z,68.05
2022-09-07T05:55:07.498Z,60.61
2022-09-07T06:00:16.500Z,51.50
2022-09-07T06:05:19.727Z,51.11
2022-09-07T06:15:46.307Z,54.71
2022-09-07T06:20:49.619Z,56.68
2022-09-07T06:25:52.669Z,57.51
2022-09-07T06:31:05.006Z,60.33
2022-09-07T06:36:14.268Z,71.28
2022-09-07T06:47:03.961Z,59.93
2022-09-07T06:52:07.800Z,50.46
2022-09-07T06:57:10.951Z,50.69
2022-09-07T07:02:15.237Z,52.63
2022-09-07T07:07:18.545Z,53.57
2022-09-07T07:17:24.103Z,55.48
2022-09-07T07:22:46.140Z,57.02
2022-09-07T07:27:50.766Z,57.02
2022-09-07T07:32:58.022Z,57.02
2022-09-07T07:43:24.860Z,57.92
2022-09-07T07:48:29.105Z,57.27
2022-09-07T07:53:43.673Z,58.64
2022-09-07T07:58:48.577Z,58.58
2022-09-07T08:03:52.133Z,58.23
2022-09-07T08:08:56.161Z,59.30
2022-09-07T08:14:00.393Z,59.34
2022-09-07T08:19:03.957Z,58.32
2022-09-07T08:24:07.220Z,58.18
2022-09-07T08:29:10.298Z,58.14
2022-09-07T08:34:13.274Z,57.40
2022-09-07T08:39:16.505Z,56.92
2022-09-07T08:44:35.435Z,56.92
2022-09-07T08:49:49.033Z,55.86
2022-09-07T08:55:31.357Z,55.35
2022-09-07T09:00:36.288Z,55.02
2022-09-07T09:05:53.907Z,53.34
2022-09-07T09:11:35.501Z,54.35
2022-09-07T09:16:51.173Z,53.71
2022-09-07T09:22:11.077Z,52.55
2022-09-07T09:27:15.489Z,52.60
2022-09-07T09:32:41.774Z,50.93
2022-09-07T09:37:45.368Z,51.00
2022-09-07T09:42:58.572Z,49.95
2022-09-07T09:48:08.682Z,48.46
2022-09-07T09:53:33.858Z,47.26
2022-09-07T10:04:34.962Z,45.71
2022-09-07T10:09:42.051Z,44.10
2022-09-07T10:14:47.987Z,44.44
2022-09-07T10:19:52.432Z,43.03
2022-09-07T10:24:55.881Z,43.46
2022-09-07T10:30:01.551Z,42.88
2022-09-07T10:35:20.812Z,43.80
2022-09-07T10:40:51.990Z,44.72
2022-09-07T10:46:07.368Z,44.24
2022-09-07T10:51:22.589Z,42.86
2022-09-07T10:56:40.487Z,41.61
2022-09-07T11:02:00.641Z,43.72
2022-09-07T11:07:21.542Z,43.73
2022-09-07T11:12:42.152Z,42.48
2022-09-07T11:18:00.524Z,42.68
2022-09-07T11:23:40.935Z,42.50
2022-09-07T11:34:41.276Z,41.74
2022-09-07T11:39:53.861Z,42.53
2022-09-07T11:45:15.962Z,41.40
2022-09-07T11:50:23.686Z,42.45
2022-09-07T11:55:34.037Z,40.10
2022-09-07T12:01:08.908Z,37.33
2022-09-07T12:06:36.293Z,39.03
2022-09-07T12:12:13.579Z,38.08
2022-09-07T12:18:16.878Z,38.46
2022-09-07T12:23:31.587Z,39.11
2022-09-07T12:28:34.613Z,38.97
2022-09-07T12:33:41.386Z,38.73
2022-09-07T12:39:06.430Z,37.31
2022-09-07T12:44:18.592Z,38.19
2022-09-07T12:49:39.952Z,36.63
2022-09-07T12:55:28.274Z,36.46
2022-09-07T13:00:49.625Z,36.29
2022-09-07T13:06:13.818Z,35.96
2022-09-07T13:11:33.122Z,34.89
2022-09-07T13:22:31.266Z,36.12
2022-09-07T13:28:14.080Z,35.76
2022-09-07T13:33:29.013Z,34.31
2022-09-07T13:38:37.036Z,34.43
2022-09-07T13:43:46.077Z,33.41
2022-09-07T13:49:06.805Z,34.58
2022-09-07T13:54:45.623Z,34.51
2022-09-07T13:59:52.230Z,35.74
2022-09-07T14:05:00.570Z,35.00
2022-09-07T14:10:23.815Z,35.91
2022-09-07T14:15:42.921Z,34.46
2022-09-07T14:20:51.567Z,34.25
2022-09-07T14:26:17.286Z,33.33
2022-09-07T14:31:23.977Z,31.97
2022-09-07T14:36:45.883Z,31.41
2022-09-07T14:41:51.166Z,31.50
2022-09-07T14:46:57.000Z,32.35
2022-09-07T14:52:02.124Z,32.52
2022-09-07T14:57:30.725Z,34.06
2022-09-07T15:02:37.358Z,33.70
2022-09-07T15:07:53.667Z,34.48
2022-09-07T15:13:02.558Z,35.47
2022-09-07T15:18:55.864Z,36.22
2022-09-07T15:24:01.488Z,37.27
2022-09-07T15:29:11.066Z,37.74
2022-09-07T15:34:18.555Z,38.67
2022-09-07T15:39:27.678Z,39.34
2022-09-07T15:44:32.006Z,39.61
2022-09-07T15:49:35.198Z,39.67
2022-09-07T15:54:39.803Z,39.69
2022-09-07T15:59:43.417Z,39.32
2022-09-07T16:04:46.734Z,39.90
2022-09-07T16:09:52.532Z,40.15
2022-09-07T16:14:56.827Z,40.49
2022-09-07T16:20:02.132Z,41.40
2022-09-07T16:25:07.346Z,42.11
2022-09-07T16:30:11.482Z,42.64
2022-09-07T16:35:14.893Z,43.22
2022-09-07T16:40:18.389Z,43.83
2022-09-07T16:50:58.731Z,45.60
2022-09-07T16:56:11.365Z,46.20
2022-09-07T17:01:18.455Z,46.78
2022-09-07T17:06:25.099Z,47.26
2022-09-07T17:11:35.928Z,48.02
2022-09-07T17:16:41.499Z,49.13
2022-09-07T17:21:46.340Z,50.59
2022-09-07T17:26:49.749Z,52.07
2022-09-07T17:37:16.131Z,53.29
2022-09-07T17:42:19.478Z,53.70
2022-09-07T17:47:22.954Z,54.34
2022-09-07T17:52:28.668Z,54.86
2022-09-07T17:57:33.264Z,56.27
2022-09-07T18:02:37.485Z,57.99
2022-09-07T18:07:40.706Z,58.37
2022-09-07T18:12:43.816Z,58.52
2022-09-07T18:17:46.902Z,59.27
2022-09-07T18:22:51.123Z,59.75
2022-09-07T18:33:17.639Z,73.48
2022-09-07T18:38:20.762Z,65.76
2022-09-07T18:43:24.058Z,52.17
2022-09-07T18:48:27.160Z,50.23
2022-09-07T18:53:30.737Z,51.34
2022-09-07T18:58:35.221Z,52.39
2022-09-07T19:03:38.537Z,53.69
2022-09-07T19:08:45.823Z,54.75
2022-09-07T19:13:49.047Z,55.79
2022-09-07T19:18:59.604Z,56.37
2022-09-07T19:24:32.032Z,57.22
2022-09-07T19:29:35.393Z,57.73
2022-09-07T19:34:42.680Z,58.56
2022-09-07T19:39:46.227Z,58.73
2022-09-07T19:44:50.543Z,59.49
2022-09-07T19:49:53.894Z,60.02
2022-09-07T19:54:57.441Z,60.11
2022-09-07T20:00:00.617Z,60.81
2022-09-07T20:05:04.658Z,72.57
2022-09-07T20:10:09.070Z,68.26
2022-09-07T20:15:12.294Z,54.86
2022-09-07T20:20:16.066Z,51.66
2022-09-07T20:25:19.168Z,52.67
2022-09-07T20:30:24.453Z,54.01
2022-09-07T20:35:27.582Z,56.04
2022-09-07T20:40:30.722Z,57.63
2022-09-07T20:45:35.664Z,58.61
2022-09-07T20:50:38.718Z,58.72
2022-09-07T20:55:41.702Z,59.41
2022-09-07T21:00:51.809Z,60.79
2022-09-07T21:05:55.299Z,72.78
2022-09-07T21:10:58.291Z,64.99
2022-09-07T21:16:09.099Z,53.90
2022-09-07T21:21:20.828Z,51.70
2022-09-07T21:26:25.719Z,53.03
2022-09-07T21:31:31.533Z,54.61
2022-09-07T21:36:34.765Z,56.53
2022-09-07T21:41:37.824Z,57.77
2022-09-07T21:46:43.009Z,58.96
2022-09-07T21:51:46.117Z,60.92
2022-09-07T21:56:49.420Z,72.47
2022-09-07T22:01:52.429Z,66.97
2022-09-07T22:06:55.793Z,54.06
2022-09-07T22:12:00.265Z,51.95
2022-09-07T22:17:03.356Z,53.42
2022-09-07T22:22:06.451Z,55.41
2022-09-07T22:27:09.506Z,57.06
2022-09-07T22:32:12.492Z,58.25
2022-09-07T22:37:15.556Z,59.59
2022-09-07T22:42:18.567Z,72.42
2022-09-07T22:47:21.557Z,66.46
2022-09-07T22:52:24.848Z,53.05
2022-09-07T22:57:27.867Z,51.74
2022-09-07T23:02:30.870Z,53.47
2022-09-07T23:07:33.870Z,55.28
2022-09-07T23:12:36.843Z,56.69
2022-09-07T23:17:39.858Z,58.10
2022-09-07T23:22:45.150Z,59.64
2022-09-07T23:27:48.814Z,70.85
2022-09-07T23:32:51.903Z,65.69
2022-09-07T23:37:55.233Z,53.84
2022-09-07T23:42:58.691Z,52.47
2022-09-07T23:48:02.280Z,54.13
2022-09-07T23:53:05.257Z,55.69
2022-09-07T23:58:09.528Z,57.43
